CNB2 weather

Bolton Heliport
Bolton, Ontario, Canada

Public forecast

Using degrees Celsius for public forecast. Weather courtesy of forecast.io.

Closest aviation weather report (METAR) to Bolton Heliport

Closest report is Lester B. Pearson International Airport, 10.9 nm (20.1 km) SSE. Retrieved 2020/05/31 00:00 UTC (44 minutes ago):

CYYZ 310000Z 35011KT 15SM FEW040 SCT055 14/05 A3005 RMK CF1SC3 CF TR SLP180

Closest aviation forecast (TAF) to Bolton Heliport

Closest forecast is Lester B. Pearson International Airport, 10.9 nm (20.1 km) SSE. Retrieved 2020-05-31 00:39 UTC (5 minutes ago):

TAF CYYZ 302338Z 3100/0106 34015G25KT P6SM SCT050 TEMPO 3100/3104 BKN050 BECMG 3100/3102 34012KT FM310400 34010KT P6SM SCT040 FM310700 34010KT P6SM BKN030 FM311100 34012KT P6SM FEW030 FM311900 31015G25KT P6SM BKN060 RMK NXT FCST BY 310300Z